createdAt,value
2022-12-20T00:01:51.521Z,14.40
2022-12-20T00:04:19.372Z,16.23
2022-12-20T00:06:47.359Z,14.63
2022-12-20T00:09:15.313Z,14.77
2022-12-20T00:11:43.543Z,14.23
2022-12-20T00:14:12.753Z,14.23
2022-12-20T00:16:40.512Z,14.33
2022-12-20T00:19:08.981Z,14.53
2022-12-20T00:21:38.147Z,13.83
2022-12-20T00:24:07.452Z,15.03
2022-12-20T00:26:37.966Z,14.23
2022-12-20T00:29:06.716Z,14.43
2022-12-20T00:31:38.777Z,13.13
2022-12-20T00:34:06.641Z,13.87
2022-12-20T00:36:34.658Z,14.57
2022-12-20T00:39:03.105Z,13.03
2022-12-20T00:41:33.409Z,13.27
2022-12-20T00:44:01.759Z,13.13
2022-12-20T00:46:29.930Z,13.30
2022-12-20T00:48:59.326Z,13.90
2022-12-20T00:51:28.908Z,12.80
2022-12-20T00:53:57.016Z,14.13
2022-12-20T00:56:26.027Z,13.83
2022-12-20T00:58:54.719Z,12.13
2022-12-20T01:01:24.911Z,13.50
2022-12-20T01:03:54.496Z,14.17
2022-12-20T01:06:25.463Z,12.77
2022-12-20T01:08:53.869Z,13.60
2022-12-20T01:11:24.133Z,12.27
2022-12-20T01:13:54.132Z,13.47
2022-12-20T01:16:25.039Z,13.03
2022-12-20T01:18:54.342Z,12.73
2022-12-20T01:21:26.154Z,13.67
2022-12-20T01:23:54.448Z,13.77
2022-12-20T01:26:24.558Z,15.00
2022-12-20T01:28:55.276Z,13.80
2022-12-20T01:31:23.714Z,13.80
2022-12-20T01:33:53.376Z,12.80
2022-12-20T01:36:25.261Z,14.53
2022-12-20T01:38:57.697Z,13.77
2022-12-20T01:41:25.736Z,12.80
2022-12-20T01:43:56.456Z,13.67
2022-12-20T01:46:26.180Z,12.90
2022-12-20T01:48:59.235Z,13.40
2022-12-20T01:51:31.806Z,13.97
2022-12-20T01:54:05.722Z,13.40
2022-12-20T01:56:33.670Z,12.53
2022-12-20T01:59:02.443Z,11.90
2022-12-20T02:01:30.351Z,11.80
2022-12-20T02:03:58.602Z,13.23
2022-12-20T02:06:29.867Z,12.47
2022-12-20T02:09:02.119Z,13.00
2022-12-20T02:11:50.255Z,11.93
2022-12-20T02:14:37.745Z,12.97
2022-12-20T02:17:14.055Z,12.60
2022-12-20T02:20:15.907Z,12.50
2022-12-20T02:23:08.006Z,12.00
2022-12-20T02:25:47.777Z,12.70
2022-12-20T02:28:35.003Z,12.33
2022-12-20T02:31:09.306Z,11.97
2022-12-20T02:33:37.224Z,12.80
2022-12-20T02:36:05.817Z,11.87
2022-12-20T02:38:35.217Z,13.13
2022-12-20T02:41:07.438Z,12.43
2022-12-20T02:43:58.235Z,12.73
2022-12-20T02:46:28.481Z,12.10
2022-12-20T02:49:01.870Z,12.43
2022-12-20T02:51:31.544Z,11.27
2022-12-20T02:54:00.358Z,10.53
2022-12-20T02:56:33.445Z,11.37
2022-12-20T02:59:06.334Z,11.70
2022-12-20T03:01:39.395Z,12.07
2022-12-20T03:04:09.206Z,11.33
2022-12-20T03:06:36.905Z,10.90
2022-12-20T03:09:05.020Z,11.30
2022-12-20T03:11:33.827Z,10.83
2022-12-20T03:14:01.726Z,10.53
2022-12-20T03:16:29.760Z,10.97
2022-12-20T03:18:59.008Z,10.53
2022-12-20T03:21:26.947Z,11.80
2022-12-20T03:23:54.859Z,11.30
2022-12-20T03:26:22.690Z,11.03
2022-12-20T03:28:50.704Z,10.50
2022-12-20T03:31:18.679Z,10.77
2022-12-20T03:34:03.790Z,11.43
2022-12-20T03:36:33.219Z,11.93
2022-12-20T03:39:01.198Z,11.23
2022-12-20T03:41:29.369Z,10.97
2022-12-20T03:43:57.434Z,11.10
2022-12-20T03:46:25.202Z,10.73
2022-12-20T03:48:53.784Z,11.13
2022-12-20T03:51:21.690Z,10.03
2022-12-20T03:53:51.092Z,11.57
2022-12-20T03:56:19.344Z,13.03
2022-12-20T03:58:47.237Z,11.47
2022-12-20T04:01:20.814Z,11.83
2022-12-20T04:03:48.684Z,11.90
2022-12-20T04:06:17.019Z,11.73
2022-12-20T04:08:45.177Z,11.13
2022-12-20T04:11:17.986Z,10.90
2022-12-20T04:13:46.964Z,16.63
2022-12-20T04:16:16.507Z,12.47
2022-12-20T04:18:44.494Z,10.93
2022-12-20T04:21:13.467Z,10.10
2022-12-20T04:23:43.543Z,9.97
2022-12-20T04:26:13.285Z,10.03
2022-12-20T04:28:42.500Z,10.00
2022-12-20T04:31:10.994Z,9.20
2022-12-20T04:33:39.269Z,10.27
2022-12-20T04:36:07.943Z,11.03
2022-12-20T04:38:36.352Z,10.73
2022-12-20T04:41:04.262Z,10.27
2022-12-20T04:43:32.252Z,10.83
2022-12-20T04:46:01.604Z,10.10
2022-12-20T04:51:17.588Z,10.43
2022-12-20T04:53:48.023Z,11.33
2022-12-20T04:56:21.163Z,10.67
2022-12-20T04:58:51.035Z,11.07
2022-12-20T05:01:20.954Z,10.27
2022-12-20T05:03:49.581Z,11.90
2022-12-20T05:06:18.319Z,11.33
2022-12-20T05:08:46.232Z,11.03
2022-12-20T05:11:14.348Z,10.27
2022-12-20T05:13:42.453Z,10.27
2022-12-20T05:16:10.457Z,10.13
2022-12-20T05:18:46.448Z,11.40
2022-12-20T05:21:42.310Z,11.37
2022-12-20T05:24:28.200Z,9.50
2022-12-20T05:26:56.038Z,10.00
2022-12-20T05:29:23.890Z,9.13
2022-12-20T05:31:51.959Z,11.90
2022-12-20T05:34:21.314Z,11.00
2022-12-20T05:36:49.257Z,10.40
2022-12-20T05:39:17.337Z,11.17
2022-12-20T05:41:45.075Z,11.27
2022-12-20T05:44:12.934Z,11.07
2022-12-20T05:46:40.750Z,10.53
2022-12-20T05:49:08.630Z,9.77
2022-12-20T05:51:37.808Z,11.70
2022-12-20T05:54:05.728Z,11.10
2022-12-20T05:56:33.587Z,11.43
2022-12-20T05:59:01.496Z,11.20
2022-12-20T06:01:29.354Z,11.23
2022-12-20T06:03:57.866Z,10.67
2022-12-20T06:06:25.775Z,10.77
2022-12-20T06:08:56.119Z,10.50
2022-12-20T06:11:29.657Z,10.07
2022-12-20T06:13:58.361Z,9.97
2022-12-20T06:16:26.123Z,10.63
2022-12-20T06:18:54.041Z,9.70
2022-12-20T06:21:21.936Z,10.77
2022-12-20T06:23:52.757Z,10.23
2022-12-20T06:26:23.145Z,10.80
2022-12-20T06:28:52.664Z,10.53
2022-12-20T06:31:21.453Z,9.83
2022-12-20T06:33:49.324Z,10.33
2022-12-20T06:36:17.201Z,19.83
2022-12-20T06:38:45.216Z,12.33
2022-12-20T06:41:13.119Z,12.03
2022-12-20T06:43:42.207Z,10.73
2022-12-20T06:46:10.184Z,10.97
2022-12-20T06:48:38.141Z,10.30
2022-12-20T06:51:06.197Z,9.97
2022-12-20T06:53:34.252Z,11.63
2022-12-20T06:56:02.172Z,10.97
2022-12-20T06:58:29.943Z,12.57
2022-12-20T07:00:59.601Z,12.17
2022-12-20T07:03:27.626Z,12.53
2022-12-20T07:05:56.546Z,11.47
2022-12-20T07:08:25.358Z,12.47
2022-12-20T07:10:54.503Z,12.07
2022-12-20T07:13:22.705Z,11.43
2022-12-20T07:15:50.677Z,11.33
2022-12-20T07:18:23.121Z,12.40
2022-12-20T07:20:50.932Z,12.47
2022-12-20T07:23:19.366Z,12.50
2022-12-20T07:25:54.746Z,11.50
2022-12-20T07:28:22.668Z,12.30
2022-12-20T07:30:50.810Z,11.53
2022-12-20T07:33:20.526Z,12.93
2022-12-20T07:35:53.970Z,12.30
2022-12-20T07:38:22.515Z,12.93
2022-12-20T07:40:50.596Z,12.47
2022-12-20T07:43:18.633Z,12.73
2022-12-20T07:45:47.630Z,12.27
2022-12-20T07:48:19.795Z,11.97
2022-12-20T07:50:53.440Z,13.63
2022-12-20T07:53:22.718Z,12.27
2022-12-20T07:55:50.983Z,13.50
2022-12-20T07:58:21.175Z,13.57
2022-12-20T08:00:49.140Z,12.67
2022-12-20T08:03:22.087Z,13.10
2022-12-20T08:05:54.844Z,14.37
2022-12-20T08:08:24.031Z,13.10
2022-12-20T08:10:52.826Z,12.63
2022-12-20T08:13:23.897Z,12.60
2022-12-20T08:15:51.991Z,14.37
2022-12-20T08:18:19.936Z,14.33
2022-12-20T08:20:47.926Z,13.73
2022-12-20T08:23:17.717Z,15.23
2022-12-20T08:25:45.801Z,13.80
2022-12-20T08:28:13.872Z,12.80
2022-12-20T08:30:41.877Z,13.67
2022-12-20T08:33:09.737Z,14.37
2022-12-20T08:35:37.893Z,13.57
2022-12-20T08:38:05.745Z,13.10
2022-12-20T08:40:35.365Z,13.63
2022-12-20T08:43:08.348Z,14.17
2022-12-20T08:45:38.214Z,17.33
2022-12-20T08:48:06.604Z,14.13
2022-12-20T08:50:34.862Z,14.00
2022-12-20T08:53:03.038Z,14.03
2022-12-20T08:55:31.069Z,14.53
2022-12-20T08:58:00.378Z,13.27
2022-12-20T09:00:28.683Z,13.47
2022-12-20T09:02:59.423Z,14.20
2022-12-20T09:05:27.450Z,12.30
2022-12-20T09:07:55.574Z,14.43
2022-12-20T09:10:23.615Z,15.87
2022-12-20T09:12:51.547Z,14.73
2022-12-20T09:15:20.769Z,13.07
2022-12-20T09:17:48.677Z,13.97
2022-12-20T09:20:16.778Z,13.50
2022-12-20T09:22:44.807Z,13.67
2022-12-20T09:25:12.795Z,13.97
2022-12-20T09:27:40.705Z,13.40
2022-12-20T09:30:09.972Z,16.30
2022-12-20T09:32:39.422Z,14.83
2022-12-20T09:35:08.130Z,13.07
2022-12-20T09:37:36.074Z,13.53
2022-12-20T09:40:04.435Z,13.27
2022-12-20T09:42:33.072Z,13.30
2022-12-20T09:45:07.453Z,12.40
2022-12-20T09:47:37.484Z,13.83
2022-12-20T09:50:08.773Z,13.80
2022-12-20T09:52:52.821Z,11.53
2022-12-20T09:55:28.343Z,12.40
2022-12-20T09:58:17.242Z,14.13
2022-12-20T10:00:53.466Z,13.37
2022-12-20T10:03:24.887Z,12.00
2022-12-20T10:05:56.404Z,13.33
2022-12-20T10:08:42.830Z,11.23
2022-12-20T10:11:23.364Z,11.63
2022-12-20T10:14:04.270Z,12.10
2022-12-20T10:16:43.662Z,12.70
2022-12-20T10:19:27.419Z,13.67
2022-12-20T10:22:06.319Z,11.80
2022-12-20T10:24:35.898Z,11.77
2022-12-20T10:27:14.300Z,11.70
2022-12-20T10:29:42.905Z,12.07
2022-12-20T10:32:14.668Z,12.30
2022-12-20T10:34:48.856Z,12.43
2022-12-20T10:37:18.360Z,11.37
2022-12-20T10:39:50.105Z,11.57
2022-12-20T10:42:38.139Z,11.10
2022-12-20T10:45:31.244Z,11.13
2022-12-20T10:48:06.275Z,11.63
2022-12-20T10:50:35.108Z,11.57
2022-12-20T10:53:25.603Z,11.03
2022-12-20T10:55:54.664Z,16.50
2022-12-20T10:58:33.411Z,11.87
2022-12-20T11:01:15.339Z,11.23
2022-12-20T11:03:59.287Z,8.50
2022-12-20T11:06:31.102Z,9.90
2022-12-20T11:09:25.160Z,11.50
2022-12-20T11:12:00.342Z,10.07
2022-12-20T11:14:34.602Z,10.37
2022-12-20T11:17:20.986Z,9.40
2022-12-20T11:20:10.253Z,10.40
2022-12-20T11:22:49.721Z,10.53
2022-12-20T11:25:36.144Z,9.67
2022-12-20T11:28:21.349Z,10.80
2022-12-20T11:31:00.008Z,9.40
2022-12-20T11:33:51.665Z,9.43
2022-12-20T11:36:30.732Z,9.37
2022-12-20T11:39:12.666Z,9.80
2022-12-20T11:41:51.562Z,9.53
2022-12-20T11:44:28.965Z,10.10
2022-12-20T11:47:12.345Z,9.30
2022-12-20T11:50:05.037Z,9.73
2022-12-20T11:52:37.423Z,10.20
2022-12-20T11:55:17.889Z,9.77
2022-12-20T12:00:53.878Z,9.47
2022-12-20T12:03:29.833Z,9.50
2022-12-20T12:06:02.998Z,9.70
2022-12-20T12:08:38.045Z,9.97
2022-12-20T12:11:55.779Z,9.07
2022-12-20T12:14:07.132Z,9.40
2022-12-20T12:16:38.774Z,9.13
2022-12-20T12:19:12.157Z,9.40
2022-12-20T12:21:44.777Z,9.37
2022-12-20T12:24:21.535Z,9.33
2022-12-20T12:26:49.524Z,9.93
2022-12-20T12:29:19.898Z,12.13
2022-12-20T12:31:53.915Z,9.57
2022-12-20T12:34:36.467Z,8.47
2022-12-20T12:37:37.880Z,9.90
2022-12-20T12:40:25.068Z,10.37
2022-12-20T12:43:32.559Z,9.57
2022-12-20T12:46:04.823Z,9.57
2022-12-20T12:48:39.722Z,10.40
2022-12-20T12:51:08.352Z,9.50
2022-12-20T12:53:43.294Z,9.13
2022-12-20T12:56:45.832Z,9.67
2022-12-20T12:59:51.487Z,9.60
2022-12-20T13:02:53.016Z,10.37
2022-12-20T13:05:37.134Z,9.27
2022-12-20T13:08:06.085Z,9.43
2022-12-20T13:11:03.787Z,9.67
2022-12-20T13:13:31.853Z,8.23
2022-12-20T13:17:09.401Z,9.73
2022-12-20T13:19:38.455Z,10.37
2022-12-20T13:22:22.053Z,8.73
2022-12-20T13:24:58.394Z,8.90
2022-12-20T13:27:29.857Z,10.10
2022-12-20T13:30:30.534Z,19.97
2022-12-20T13:33:24.845Z,9.60
2022-12-20T13:36:16.647Z,8.93
2022-12-20T13:38:53.982Z,8.10
2022-12-20T13:41:35.924Z,9.33
2022-12-20T13:44:32.742Z,9.70
2022-12-20T13:47:07.726Z,9.17
2022-12-20T13:49:40.217Z,9.87
2022-12-20T13:52:18.814Z,9.33
2022-12-20T13:54:49.087Z,8.73
2022-12-20T13:57:18.949Z,9.37
2022-12-20T13:59:48.918Z,9.03
2022-12-20T14:02:22.588Z,15.60
2022-12-20T14:04:59.292Z,9.67
2022-12-20T14:07:30.988Z,9.70
2022-12-20T14:10:02.115Z,10.63
2022-12-20T14:12:36.414Z,10.30
2022-12-20T14:15:25.981Z,9.57
2022-12-20T14:17:54.612Z,10.57
2022-12-20T14:20:25.999Z,9.80
2022-12-20T14:23:05.544Z,9.27
2022-12-20T14:25:39.014Z,9.27
2022-12-20T14:28:13.658Z,8.27
2022-12-20T14:30:44.891Z,9.50
2022-12-20T14:33:26.004Z,10.83
2022-12-20T14:35:53.975Z,10.90
2022-12-20T14:38:26.151Z,10.73
2022-12-20T14:40:54.546Z,10.80
2022-12-20T14:43:29.012Z,10.43
2022-12-20T14:46:19.200Z,9.57
2022-12-20T14:48:47.975Z,10.67
2022-12-20T14:51:22.222Z,10.43
2022-12-20T14:53:53.370Z,10.33
2022-12-20T14:56:31.516Z,10.57
2022-12-20T14:59:07.871Z,10.10
2022-12-20T15:01:40.096Z,10.33
2022-12-20T15:04:32.753Z,10.70
2022-12-20T15:07:01.149Z,10.33
2022-12-20T15:09:30.749Z,10.57
2022-12-20T15:11:59.150Z,10.17
2022-12-20T15:14:36.487Z,10.50
2022-12-20T15:17:10.169Z,10.37
2022-12-20T15:19:42.476Z,11.13
2022-12-20T15:22:16.309Z,11.93
2022-12-20T15:24:46.081Z,12.07
2022-12-20T15:27:14.716Z,11.60
2022-12-20T15:29:43.358Z,10.67
2022-12-20T15:32:22.433Z,11.50
2022-12-20T15:34:50.537Z,11.13
2022-12-20T15:37:19.202Z,11.33
2022-12-20T15:39:48.757Z,12.33
2022-12-20T15:42:19.694Z,13.00
2022-12-20T15:44:48.302Z,16.83
2022-12-20T15:47:17.623Z,12.10
2022-12-20T15:49:50.033Z,11.47
2022-12-20T15:52:21.879Z,13.37
2022-12-20T15:54:51.620Z,12.43
2022-12-20T15:57:20.971Z,12.23
2022-12-20T16:00:00.588Z,12.03
2022-12-20T16:02:32.623Z,11.43
2022-12-20T16:05:03.398Z,11.50
2022-12-20T16:07:31.529Z,16.80
2022-12-20T16:10:00.953Z,12.37
2022-12-20T16:12:35.926Z,12.20
2022-12-20T16:15:05.338Z,12.57
2022-12-20T16:17:34.082Z,13.27
2022-12-20T16:20:01.927Z,13.47
2022-12-20T16:22:29.888Z,11.87
2022-12-20T16:24:57.818Z,12.47
2022-12-20T16:27:27.416Z,12.53
2022-12-20T16:29:55.285Z,13.17
2022-12-20T16:32:23.541Z,12.60
2022-12-20T16:34:52.413Z,11.83
2022-12-20T16:37:21.029Z,12.53
2022-12-20T16:39:49.071Z,12.90
2022-12-20T16:42:22.829Z,13.30
2022-12-20T16:44:54.324Z,13.07
2022-12-20T16:47:22.801Z,14.07
2022-12-20T16:49:53.282Z,15.37
2022-12-20T16:52:23.570Z,14.50
2022-12-20T16:54:52.232Z,18.13
2022-12-20T16:57:21.548Z,13.23
2022-12-20T16:59:49.906Z,14.23
2022-12-20T17:02:26.773Z,13.20
2022-12-20T17:04:54.795Z,14.00
2022-12-20T17:07:22.830Z,14.97
2022-12-20T17:09:50.911Z,13.57
2022-12-20T17:12:20.980Z,14.57
2022-12-20T17:14:52.152Z,14.20
2022-12-20T17:17:22.916Z,14.67
2022-12-20T17:19:50.841Z,14.87
2022-12-20T17:22:25.626Z,20.47
2022-12-20T17:24:53.851Z,18.57
2022-12-20T17:27:21.885Z,15.20
2022-12-20T17:29:50.755Z,14.50
2022-12-20T17:32:23.440Z,15.60
2022-12-20T17:34:51.597Z,17.40
2022-12-20T17:37:21.090Z,13.37
2022-12-20T17:39:50.467Z,14.83
2022-12-20T17:42:18.927Z,13.93
2022-12-20T17:44:47.271Z,13.13
2022-12-20T17:47:16.910Z,14.70
2022-12-20T17:49:46.389Z,14.07
2022-12-20T17:52:15.966Z,14.07
2022-12-20T17:54:43.963Z,14.23
2022-12-20T17:57:16.028Z,13.80
2022-12-20T17:59:44.342Z,13.30
2022-12-20T18:02:23.677Z,13.20
2022-12-20T18:04:54.496Z,14.03
2022-12-20T18:07:22.601Z,13.93
2022-12-20T18:09:51.186Z,15.70
2022-12-20T18:12:19.443Z,14.87
2022-12-20T18:14:50.617Z,13.50
2022-12-20T18:17:18.801Z,13.33
2022-12-20T18:19:46.776Z,13.20
2022-12-20T18:22:16.456Z,13.67
2022-12-20T18:24:44.927Z,14.10
2022-12-20T18:27:13.666Z,14.60
2022-12-20T18:29:41.805Z,13.37
2022-12-20T18:32:09.991Z,13.90
2022-12-20T18:34:38.344Z,12.87
2022-12-20T18:37:06.643Z,14.50
2022-12-20T18:39:36.849Z,14.00
2022-12-20T18:42:05.465Z,13.00
2022-12-20T18:44:37.663Z,14.27
2022-12-20T18:47:06.017Z,14.33
2022-12-20T18:49:34.470Z,12.03
2022-12-20T18:52:02.485Z,13.20
2022-12-20T18:54:30.866Z,12.37
2022-12-20T18:57:00.318Z,12.37
2022-12-20T18:59:28.811Z,13.03
2022-12-20T19:01:56.929Z,11.87
2022-12-20T19:04:25.419Z,12.50
2022-12-20T19:06:53.711Z,11.83
2022-12-20T19:09:22.450Z,13.23
2022-12-20T19:11:56.325Z,12.20
2022-12-20T19:14:26.418Z,13.77
2022-12-20T19:16:57.493Z,12.17
2022-12-20T19:19:26.437Z,11.93
2022-12-20T19:21:59.089Z,13.30
2022-12-20T19:24:29.491Z,13.67
2022-12-20T19:26:57.604Z,13.73
2022-12-20T19:29:28.647Z,14.20
2022-12-20T19:31:56.591Z,12.40
2022-12-20T19:34:24.605Z,13.57
2022-12-20T19:36:53.361Z,14.03
2022-12-20T19:39:23.665Z,14.67
2022-12-20T19:42:22.205Z,13.20
2022-12-20T19:44:42.285Z,14.73
2022-12-20T19:47:10.292Z,12.77
2022-12-20T19:49:38.472Z,13.03
2022-12-20T19:52:07.492Z,21.00
2022-12-20T19:54:36.512Z,14.67
2022-12-20T19:57:04.511Z,14.00
2022-12-20T19:59:39.475Z,13.50
2022-12-20T20:02:11.976Z,15.17
2022-12-20T20:04:43.749Z,15.93
2022-12-20T20:07:12.367Z,15.20
2022-12-20T20:09:42.024Z,13.63
2022-12-20T20:12:10.057Z,13.67
2022-12-20T20:14:37.928Z,14.27
2022-12-20T20:17:05.805Z,13.70
2022-12-20T20:19:35.534Z,13.67
2022-12-20T20:22:04.077Z,13.83
2022-12-20T20:24:32.795Z,12.13
2022-12-20T20:27:01.110Z,13.60
2022-12-20T20:29:29.362Z,14.00
2022-12-20T20:31:57.726Z,16.20
2022-12-20T20:34:25.778Z,14.63
2022-12-20T20:36:55.832Z,14.33
2022-12-20T20:39:23.857Z,13.10
2022-12-20T20:41:51.804Z,13.20
2022-12-20T20:44:19.879Z,13.63
2022-12-20T20:46:47.833Z,14.83
2022-12-20T20:49:15.868Z,14.80
2022-12-20T20:51:45.165Z,12.80
2022-12-20T20:54:24.109Z,12.40
2022-12-20T20:56:52.307Z,13.63
2022-12-20T20:59:21.712Z,13.40
2022-12-20T21:01:50.266Z,14.27
2022-12-20T21:04:18.665Z,13.63
2022-12-20T21:06:47.351Z,13.50
2022-12-20T21:09:15.528Z,12.93
2022-12-20T21:11:45.469Z,14.00
2022-12-20T21:14:14.144Z,13.70
2022-12-20T21:16:42.373Z,14.43
2022-12-20T21:19:10.923Z,14.20
2022-12-20T21:21:38.824Z,14.50
2022-12-20T21:24:07.230Z,13.43
2022-12-20T21:26:35.085Z,13.93
2022-12-20T21:29:04.707Z,13.67
2022-12-20T21:31:32.781Z,13.17
2022-12-20T21:34:01.467Z,14.93
2022-12-20T21:36:29.441Z,13.57
2022-12-20T21:38:59.945Z,13.57
2022-12-20T21:41:30.689Z,14.77
2022-12-20T21:44:00.869Z,14.03
2022-12-20T21:46:31.847Z,15.93
2022-12-20T21:49:00.738Z,13.40
2022-12-20T21:51:30.755Z,12.63
2022-12-20T21:54:00.082Z,13.33
2022-12-20T21:56:29.908Z,12.23
2022-12-20T21:58:58.114Z,12.83
2022-12-20T22:01:28.313Z,13.93
2022-12-20T22:03:59.482Z,13.57
2022-12-20T22:06:28.465Z,13.27
2022-12-20T22:08:58.936Z,14.20
2022-12-20T22:11:31.408Z,14.27
2022-12-20T22:13:59.412Z,13.53
2022-12-20T22:16:31.005Z,11.73
2022-12-20T22:19:00.984Z,13.27
2022-12-20T22:21:30.431Z,13.57
2022-12-20T22:24:02.391Z,14.07
2022-12-20T22:26:33.266Z,13.90
2022-12-20T22:29:04.217Z,13.23
2022-12-20T22:31:32.704Z,14.83
2022-12-20T22:34:03.098Z,13.43
2022-12-20T22:36:31.358Z,13.17
2022-12-20T22:39:01.498Z,13.90
2022-12-20T22:41:32.346Z,13.07
2022-12-20T22:44:00.897Z,13.30
2022-12-20T22:46:30.532Z,13.47
2022-12-20T22:48:59.325Z,13.67
2022-12-20T22:51:31.136Z,13.27
2022-12-20T22:53:59.764Z,13.30
2022-12-20T22:56:28.434Z,13.57
2022-12-20T22:58:56.496Z,13.00
2022-12-20T23:01:24.929Z,13.13
2022-12-20T23:03:53.280Z,13.10
2022-12-20T23:06:22.888Z,12.50
2022-12-20T23:08:52.137Z,13.20
2022-12-20T23:11:39.639Z,13.60
2022-12-20T23:14:28.163Z,12.70
2022-12-20T23:16:56.072Z,13.43
2022-12-20T23:19:24.131Z,13.83
2022-12-20T23:22:14.679Z,12.93
2022-12-20T23:24:43.865Z,13.43
2022-12-20T23:27:11.845Z,13.10
2022-12-20T23:29:40.725Z,13.40
2022-12-20T23:32:08.973Z,13.83
2022-12-20T23:34:36.894Z,13.67
2022-12-20T23:37:04.753Z,13.87
2022-12-20T23:39:32.456Z,13.70
2022-12-20T23:42:02.041Z,13.97
2022-12-20T23:44:31.203Z,14.10
2022-12-20T23:46:59.097Z,13.43
2022-12-20T23:49:27.139Z,13.90
2022-12-20T23:51:55.101Z,14.60
2022-12-20T23:54:23.204Z,14.00
2022-12-20T23:56:51.509Z,15.20
2022-12-20T23:59:20.777Z,15.57
